createdAt,value
2019-03-04T00:01:26.582Z,1.47
2019-03-04T00:06:33.706Z,2.47
2019-03-04T00:11:40.873Z,2.97
2019-03-04T00:16:48.784Z,2.07
2019-03-04T00:21:55.859Z,1.70
2019-03-04T00:27:03.045Z,1.70
2019-03-04T00:32:10.042Z,3.23
2019-03-04T00:37:17.366Z,1.60
2019-03-04T00:42:24.365Z,1.60
2019-03-04T00:47:31.486Z,1.40
2019-03-04T00:52:38.216Z,1.60
2019-03-04T00:57:46.671Z,1.23
2019-03-04T01:02:53.833Z,1.13
2019-03-04T01:08:00.344Z,1.07
2019-03-04T01:13:06.728Z,1.10
2019-03-04T01:18:13.652Z,1.20
2019-03-04T01:23:20.150Z,1.00
2019-03-04T01:28:26.878Z,1.10
2019-03-04T01:33:33.224Z,1.30
2019-03-04T01:38:39.817Z,1.07
2019-03-04T01:43:46.317Z,1.37
2019-03-04T01:48:56.602Z,1.00
2019-03-04T01:54:03.074Z,0.97
2019-03-04T01:59:09.940Z,1.30
2019-03-04T02:04:16.894Z,1.20
2019-03-04T02:09:24.718Z,1.00
2019-03-04T02:14:31.201Z,1.10
2019-03-04T02:19:37.994Z,1.03
2019-03-04T02:24:43.616Z,1.00
2019-03-04T02:29:50.512Z,1.23
2019-03-04T02:34:56.510Z,1.20
2019-03-04T02:40:03.500Z,1.03
2019-03-04T02:45:11.142Z,1.30
2019-03-04T02:50:17.537Z,1.60
2019-03-04T02:55:23.549Z,1.20
2019-03-04T03:00:29.284Z,1.30
2019-03-04T03:05:35.260Z,2.50
2019-03-04T03:10:40.989Z,1.63
2019-03-04T03:15:48.463Z,1.83
2019-03-04T03:20:55.038Z,1.53
2019-03-04T03:26:01.135Z,1.50
2019-03-04T03:31:07.135Z,1.40
2019-03-04T03:36:12.960Z,1.13
2019-03-04T03:41:19.631Z,1.60
2019-03-04T03:46:26.330Z,1.20
2019-03-04T03:51:32.124Z,1.60
2019-03-04T03:56:38.807Z,0.90
2019-03-04T04:01:46.080Z,1.43
2019-03-04T04:06:53.147Z,1.63
2019-03-04T04:12:00.126Z,1.53
2019-03-04T04:17:07.388Z,1.23
2019-03-04T04:22:13.873Z,1.33
2019-03-04T04:27:20.411Z,1.50
2019-03-04T04:32:26.311Z,1.60
2019-03-04T04:37:32.140Z,1.63
2019-03-04T04:42:37.966Z,1.67
2019-03-04T04:47:44.556Z,1.60
2019-03-04T04:52:51.619Z,1.50
2019-03-04T04:57:57.592Z,1.00
2019-03-04T05:03:04.671Z,1.60
2019-03-04T05:08:11.494Z,1.40
2019-03-04T05:13:20.709Z,5.73
2019-03-04T05:18:29.356Z,2.60
2019-03-04T05:23:36.694Z,1.20
2019-03-04T05:28:43.390Z,1.80
2019-03-04T05:33:52.465Z,1.20
2019-03-04T05:38:59.584Z,1.70
2019-03-04T05:44:07.789Z,2.00
2019-03-04T05:49:18.271Z,1.80
2019-03-04T05:54:25.471Z,1.43
2019-03-04T05:59:32.525Z,1.37
2019-03-04T06:04:41.773Z,1.83
2019-03-04T06:09:49.540Z,1.20
2019-03-04T06:14:56.842Z,1.60
2019-03-04T06:20:03.931Z,0.87
2019-03-04T06:25:12.263Z,1.20
2019-03-04T06:30:20.005Z,1.20
2019-03-04T06:35:26.298Z,1.63
2019-03-04T06:40:32.719Z,1.33
2019-03-04T06:45:42.672Z,1.40
2019-03-04T06:50:54.283Z,1.20
2019-03-04T06:56:31.375Z,1.00
2019-03-04T07:01:41.905Z,2.40
2019-03-04T07:06:51.100Z,1.27
2019-03-04T07:11:58.713Z,1.20
2019-03-04T07:17:04.476Z,1.03
2019-03-04T07:22:11.175Z,1.10
2019-03-04T07:27:18.088Z,2.25
2019-03-04T07:32:24.878Z,2.50
2019-03-04T07:37:31.031Z,1.45
2019-03-04T07:42:37.047Z,1.10
2019-03-04T07:47:42.904Z,0.60
2019-03-04T07:52:55.878Z,0.60
2019-03-04T07:58:01.946Z,0.88
2019-03-04T08:03:08.730Z,0.88
2019-03-04T08:08:15.252Z,1.00
2019-03-04T08:13:31.795Z,1.70
2019-03-04T08:18:38.613Z,0.40
2019-03-04T08:23:47.394Z,1.00
2019-03-04T08:28:54.856Z,1.30
2019-03-04T08:34:00.893Z,1.30
2019-03-04T08:39:09.191Z,1.02
2019-03-04T08:44:15.032Z,1.82
2019-03-04T08:49:21.295Z,2.77
2019-03-04T08:54:27.623Z,1.70
2019-03-04T08:59:34.544Z,1.55
2019-03-04T09:04:40.716Z,1.95
2019-03-04T09:09:46.659Z,2.10
2019-03-04T09:14:55.744Z,2.12
2019-03-04T09:20:03.040Z,1.22
2019-03-04T09:25:13.414Z,1.25
2019-03-04T09:30:34.184Z,1.25
2019-03-04T09:35:41.364Z,1.10
2019-03-04T09:40:47.315Z,0.80
2019-03-04T09:45:55.493Z,0.70
2019-03-04T09:51:04.282Z,0.50
2019-03-04T09:56:09.866Z,0.40
2019-03-04T10:01:20.292Z,0.25
2019-03-04T10:07:05.384Z,0.20
2019-03-04T10:12:34.950Z,0.50
2019-03-04T10:18:15.261Z,0.40
2019-03-04T10:23:58.014Z,0.33
2019-03-04T10:29:36.034Z,0.20
2019-03-04T10:35:05.153Z,0.30
2019-03-04T10:40:40.919Z,0.30
2019-03-04T10:46:16.119Z,0.30
2019-03-04T10:51:22.290Z,0.50
2019-03-04T10:56:28.862Z,0.00
2019-03-04T11:01:35.929Z,0.20
2019-03-04T11:06:43.414Z,0.20
2019-03-04T11:11:50.135Z,0.20
2019-03-04T11:16:57.546Z,0.20
2019-03-04T11:22:04.074Z,0.30
2019-03-04T11:27:10.222Z,0.40
2019-03-04T11:32:16.843Z,0.20
2019-03-04T11:37:24.324Z,0.10
2019-03-04T11:42:31.748Z,0.20
2019-03-04T11:47:40.001Z,0.20
2019-03-04T11:52:46.881Z,0.27
2019-03-04T11:57:55.177Z,0.20
2019-03-04T12:03:01.309Z,0.47
2019-03-04T12:08:08.546Z,0.37
2019-03-04T12:13:14.687Z,0.10
2019-03-04T12:18:21.034Z,0.17
2019-03-04T12:23:27.855Z,0.30
2019-03-04T12:28:36.438Z,0.30
2019-03-04T12:33:43.842Z,0.00
2019-03-04T12:38:49.714Z,0.23
2019-03-04T12:43:57.803Z,0.40
2019-03-04T12:49:04.383Z,0.07
2019-03-04T12:54:11.339Z,0.03
2019-03-04T12:59:17.389Z,0.30
2019-03-04T13:04:24.275Z,0.30
2019-03-04T13:09:30.720Z,0.10
2019-03-04T13:14:37.984Z,0.20
2019-03-04T13:19:45.287Z,0.10
2019-03-04T13:24:53.309Z,0.30
2019-03-04T13:30:00.464Z,0.40
2019-03-04T13:35:09.661Z,0.20
2019-03-04T13:40:15.847Z,0.40
2019-03-04T13:45:22.770Z,0.30
2019-03-04T13:50:30.924Z,0.30
2019-03-04T13:55:37.058Z,0.20
2019-03-04T14:00:44.372Z,0.30
2019-03-04T14:05:50.132Z,0.37
2019-03-04T14:10:57.529Z,0.20
2019-03-04T14:16:03.534Z,0.60
2019-03-04T14:21:09.781Z,0.70
2019-03-04T14:26:17.092Z,0.40
2019-03-04T14:31:23.998Z,0.30
2019-03-04T14:36:29.805Z,0.63
2019-03-04T14:41:36.260Z,0.45
2019-03-04T14:46:43.102Z,0.13
2019-03-04T14:51:50.145Z,0.63
2019-03-04T14:56:57.242Z,0.28
2019-03-04T15:02:04.634Z,0.28
2019-03-04T15:07:11.484Z,0.53
2019-03-04T15:12:17.961Z,0.50
2019-03-04T15:17:31.225Z,0.87
2019-03-04T15:22:36.990Z,0.40
2019-03-04T15:27:43.000Z,0.78
2019-03-04T15:32:48.931Z,0.70
2019-03-04T15:37:56.833Z,0.45
2019-03-04T15:43:03.323Z,0.20
2019-03-04T15:48:09.845Z,0.35
2019-03-04T15:53:16.132Z,0.55
2019-03-04T15:58:26.205Z,0.40
2019-03-04T16:03:36.713Z,0.20
2019-03-04T16:08:44.037Z,0.10
2019-03-04T16:13:54.130Z,0.57
2019-03-04T16:18:58.583Z,0.30
2019-03-04T16:24:04.526Z,0.10
2019-03-04T16:29:10.636Z,0.10
2019-03-04T16:34:17.681Z,1.40
2019-03-04T16:39:25.379Z,0.70
2019-03-04T16:44:34.686Z,0.50
2019-03-04T16:49:40.839Z,0.17
2019-03-04T16:54:48.518Z,0.43
2019-03-04T16:59:56.092Z,0.40
2019-03-04T17:05:02.749Z,0.33
2019-03-04T17:10:10.413Z,0.20
2019-03-04T17:15:19.160Z,0.33
2019-03-04T17:20:25.391Z,0.30
2019-03-04T17:25:31.625Z,0.50
2019-03-04T17:30:39.153Z,0.30
2019-03-04T17:35:47.748Z,0.10
2019-03-04T17:40:56.918Z,0.47
2019-03-04T17:46:03.174Z,0.30
2019-03-04T17:51:09.350Z,0.07
2019-03-04T17:56:16.464Z,0.47
2019-03-04T18:01:23.703Z,0.50
2019-03-04T18:06:30.999Z,0.30
2019-03-04T18:11:40.040Z,0.20
2019-03-04T18:16:46.765Z,0.10
2019-03-04T18:21:56.700Z,0.20
2019-03-04T18:27:23.559Z,0.40
2019-03-04T18:33:20.447Z,0.80
2019-03-04T18:39:08.644Z,0.90
2019-03-04T18:44:43.354Z,0.20
2019-03-04T18:49:49.691Z,0.70
2019-03-04T18:54:59.398Z,0.63
2019-03-04T19:00:11.531Z,0.37
2019-03-04T19:05:17.658Z,0.50
2019-03-04T19:10:23.624Z,0.80
2019-03-04T19:15:32.057Z,0.40
2019-03-04T19:20:39.506Z,0.57
2019-03-04T19:25:46.841Z,0.53
2019-03-04T19:30:56.884Z,0.20
2019-03-04T19:36:03.107Z,0.20
2019-03-04T19:41:09.047Z,0.07
2019-03-04T19:46:16.255Z,0.20
2019-03-04T19:51:23.405Z,0.10
2019-03-04T19:56:30.644Z,0.23
2019-03-04T20:01:37.845Z,0.40
2019-03-04T20:06:43.866Z,0.20
2019-03-04T20:11:50.819Z,0.10
2019-03-04T20:17:06.258Z,0.13
2019-03-04T20:22:16.121Z,0.30
2019-03-04T20:27:24.469Z,0.10
2019-03-04T20:32:31.150Z,0.10
2019-03-04T20:37:39.582Z,0.20
2019-03-04T20:42:47.295Z,0.30
2019-03-04T20:47:55.319Z,0.40
2019-03-04T20:53:01.686Z,0.50
2019-03-04T20:58:09.081Z,0.30
2019-03-04T21:03:15.942Z,0.30
2019-03-04T21:08:24.888Z,0.40
2019-03-04T21:13:35.787Z,0.40
2019-03-04T21:18:41.610Z,0.50
2019-03-04T21:23:50.977Z,0.13
2019-03-04T21:29:33.969Z,0.30
2019-03-04T21:35:04.925Z,0.30
2019-03-04T21:40:18.078Z,0.10
2019-03-04T21:45:55.628Z,0.40
2019-03-04T21:51:24.468Z,0.17
2019-03-04T21:57:11.700Z,0.10
2019-03-04T22:02:39.268Z,0.20
2019-03-04T22:07:48.478Z,0.10
2019-03-04T22:12:57.443Z,0.10
2019-03-04T22:18:05.876Z,0.30
2019-03-04T22:23:13.078Z,0.40
2019-03-04T22:28:20.486Z,0.00
2019-03-04T22:33:27.969Z,0.10
2019-03-04T22:38:35.398Z,0.40
2019-03-04T22:43:42.351Z,0.17
2019-03-04T22:48:48.709Z,0.30
2019-03-04T22:53:56.189Z,0.10
2019-03-04T22:59:02.528Z,0.40
2019-03-04T23:04:35.394Z,0.47
2019-03-04T23:09:47.755Z,0.33
2019-03-04T23:14:59.790Z,0.27
2019-03-04T23:20:07.289Z,0.30
2019-03-04T23:25:14.352Z,0.63
2019-03-04T23:30:21.950Z,0.10
2019-03-04T23:35:28.768Z,0.40
2019-03-04T23:40:38.781Z,0.40
2019-03-04T23:45:46.485Z,0.30
2019-03-04T23:50:56.653Z,0.23
2019-03-04T23:56:03.048Z,0.47
